Time,TemperatureF,DewpointF,PressureIn,WindDirection,WindDirectionDegrees,WindSpeedMPH,WindSpeedGustMPH,Humidity,HourlyPrecipIn,Conditions,Clouds,dailyrainin,SoftwareType,DateUTC
2013-01-19 00:18:00,38.4,27.0,30.00,WSW,239,10.0,15.0,65,0.00,,,0.00,weatherlink.com 1.10,2013-01-19 05:18:00,
2013-01-19 00:33:00,38.2,28.0,30.00,West,271,1.0,10.0,66,0.00,,,0.00,weatherlink.com 1.10,2013-01-19 05:33:00,
2013-01-19 00:47:00,38.2,28.0,29.99,West,272,6.0,12.0,66,0.00,,,0.00,weatherlink.com 1.10,2013-01-19 05:47:00,
2013-01-19 01:02:00,38.2,28.0,29.99,SW,231,9.0,9.0,66,0.00,,,0.00,weatherlink.com 1.10,2013-01-19 06:02:00,
2013-01-19 01:17:00,38.1,28.0,29.99,West,264,4.0,10.0,67,0.00,,,0.00,weatherlink.com 1.10,2013-01-19 06:17:00,
2013-01-19 01:32:00,38.0,28.0,29.98,SW,233,2.0,8.0,67,0.00,,,0.00,weatherlink.com 1.10,2013-01-19 06:32:00,
2013-01-19 01:47:00,38.0,28.0,29.98,SW,229,4.0,14.0,67,0.00,,,0.00,weatherlink.com 1.10,2013-01-19 06:47:00,
2013-01-19 02:02:00,38.0,28.0,29.99,SSW,210,7.0,9.0,68,0.00,,,0.00,weatherlink.com 1.10,2013-01-19 07:02:00,
2013-01-19 02:17:00,37.9,28.0,29.98,WSW,258,5.0,13.0,68,0.00,,,0.00,weatherlink.com 1.10,2013-01-19 07:17:00,
2013-01-19 02:32:00,38.2,28.0,29.99,WSW,240,8.0,12.0,68,0.00,,,0.00,weatherlink.com 1.10,2013-01-19 07:32:00,
2013-01-19 02:47:00,38.2,29.0,30.00,WSW,255,3.0,11.0,69,0.00,,,0.00,weatherlink.com 1.10,2013-01-19 07:47:00,
2013-01-19 03:02:00,38.0,29.0,30.00,WNW,302,4.0,11.0,69,0.00,,,0.00,weatherlink.com 1.10,2013-01-19 08:02:00,
2013-01-19 03:17:00,37.8,29.0,30.00,SW,221,6.0,10.0,70,0.00,,,0.00,weatherlink.com 1.10,2013-01-19 08:17:00,
2013-01-19 03:32:00,37.6,29.0,30.00,SW,229,1.0,10.0,71,0.00,,,0.00,weatherlink.com 1.10,2013-01-19 08:32:00,
2013-01-19 03:47:00,37.5,29.0,30.00,WSW,243,3.0,8.0,71,0.00,,,0.00,weatherlink.com 1.10,2013-01-19 08:47:00,
2013-01-19 04:02:00,37.3,29.0,29.99,WNW,302,2.0,6.0,72,0.00,,,0.00,weatherlink.com 1.10,2013-01-19 09:02:00,
2013-01-19 04:17:00,37.2,29.0,29.99,West,264,3.0,6.0,73,0.00,,,0.00,weatherlink.com 1.10,2013-01-19 09:17:00,
2013-01-19 04:32:00,37.1,29.0,29.99,SE,140,1.0,7.0,73,0.00,,,0.00,weatherlink.com 1.10,2013-01-19 09:32:00,
2013-01-19 04:47:00,36.9,29.0,29.99,South,188,3.0,7.0,74,0.00,,,0.00,weatherlink.com 1.10,2013-01-19 09:47:00,
2013-01-19 05:02:00,36.9,29.0,29.98,SSE,148,1.0,12.0,74,0.00,,,0.00,weatherlink.com 1.10,2013-01-19 10:02:00,
2013-01-19 05:17:00,36.7,29.0,29.98,WSW,245,3.0,5.0,75,0.00,,,0.00,weatherlink.com 1.10,2013-01-19 10:17:00,
2013-01-19 05:32:00,36.7,29.0,29.98,NNE,22,1.0,11.0,75,0.00,,,0.00,weatherlink.com 1.10,2013-01-19 10:32:00,
2013-01-19 05:47:00,36.7,29.0,29.98,South,190,2.0,7.0,75,0.00,,,0.00,weatherlink.com 1.10,2013-01-19 10:47:00,
2013-01-19 06:02:00,36.5,29.0,29.98,WSW,248,2.0,6.0,75,0.00,,,0.00,weatherlink.com 1.10,2013-01-19 11:02:00,
2013-01-19 08:02:00,35.9,30.0,29.98,SSE,159,2.0,7.0,78,0.00,,,0.00,weatherlink.com 1.10,2013-01-19 13:02:00,
2013-01-19 08:17:00,36.3,30.0,29.98,SW,228,5.0,6.0,78,0.00,,,0.00,weatherlink.com 1.10,2013-01-19 13:17:00,
2013-01-19 08:33:00,36.6,30.0,29.98,West,262,1.0,8.0,77,0.00,,,0.00,weatherlink.com 1.10,2013-01-19 13:33:00,
2013-01-19 08:48:00,37.1,31.0,29.98,SW,229,2.0,10.0,77,0.00,,,0.00,weatherlink.com 1.10,2013-01-19 13:48:00,
2013-01-19 09:03:00,37.6,30.0,29.98,SW,221,2.0,8.0,75,0.00,,,0.00,weatherlink.com 1.10,2013-01-19 14:03:00,
2013-01-19 09:18:00,38.1,31.0,29.98,WSW,249,3.0,6.0,74,0.00,,,0.00,weatherlink.com 1.10,2013-01-19 14:18:00,
2013-01-19 09:33:00,38.9,31.0,29.98,WSW,238,3.0,8.0,73,0.00,,,0.00,weatherlink.com 1.10,2013-01-19 14:33:00,
2013-01-19 09:48:00,39.3,31.0,29.98,SW,215,1.0,8.0,72,0.00,,,0.00,weatherlink.com 1.10,2013-01-19 14:48:00,
2013-01-19 10:03:00,39.9,31.0,29.98,East,93,4.0,9.0,71,0.00,,,0.00,weatherlink.com 1.10,2013-01-19 15:03:00,
2013-01-19 10:18:00,40.4,31.0,29.98,NW,309,4.0,6.0,70,0.00,,,0.00,weatherlink.com 1.10,2013-01-19 15:18:00,
2013-01-19 10:33:00,41.1,32.0,29.98,WSW,238,9.0,9.0,70,0.00,,,0.00,weatherlink.com 1.10,2013-01-19 15:33:00,
2013-01-19 10:48:00,41.7,32.0,29.97,WSW,250,3.0,7.0,68,0.01,,,0.01,weatherlink.com 1.10,2013-01-19 15:48:00,
2013-01-19 11:04:00,41.9,32.0,29.96,West,262,3.0,9.0,67,0.01,,,0.01,weatherlink.com 1.10,2013-01-19 16:04:00,
2013-01-19 11:19:00,41.8,32.0,29.95,WNW,289,2.0,13.0,68,0.02,,,0.02,weatherlink.com 1.10,2013-01-19 16:19:00,
2013-01-19 11:33:00,42.0,32.0,29.94,West,273,6.0,10.0,68,0.02,,,0.02,weatherlink.com 1.10,2013-01-19 16:33:00,
2013-01-19 11:48:00,42.3,32.0,29.93,NNW,340,1.0,9.0,67,0.01,,,0.02,weatherlink.com 1.10,2013-01-19 16:48:00,
2013-01-19 12:03:00,42.5,32.0,29.91,West,280,2.0,11.0,66,0.01,,,0.02,weatherlink.com 1.10,2013-01-19 17:03:00,
2013-01-19 12:18:00,43.1,32.0,29.90,SSW,208,7.0,14.0,66,0.00,,,0.02,weatherlink.com 1.10,2013-01-19 17:18:00,
2013-01-19 12:33:00,43.9,33.0,29.89,SSW,208,9.0,12.0,65,0.00,,,0.02,weatherlink.com 1.10,2013-01-19 17:33:00,
2013-01-19 12:48:00,44.1,33.0,29.88,West,264,2.0,17.0,65,0.01,,,0.03,weatherlink.com 1.10,2013-01-19 17:48:00,
2013-01-19 13:03:00,44.5,33.0,29.86,SSW,212,9.0,9.0,65,0.01,,,0.03,weatherlink.com 1.10,2013-01-19 18:03:00,
2013-01-19 13:19:00,45.9,33.0,29.85,SSE,159,8.0,12.0,62,0.01,,,0.03,weatherlink.com 1.10,2013-01-19 18:19:00,
2013-01-19 13:34:00,46.7,34.0,29.84,SW,228,2.0,11.0,61,0.01,,,0.03,weatherlink.com 1.10,2013-01-19 18:34:00,
2013-01-19 13:49:00,46.6,34.0,29.84,WSW,252,6.0,12.0,61,0.00,,,0.03,weatherlink.com 1.10,2013-01-19 18:49:00,
2013-01-19 14:04:00,45.8,33.0,29.83,WSW,253,1.0,13.0,62,0.00,,,0.03,weatherlink.com 1.10,2013-01-19 19:04:00,
2013-01-19 14:19:00,45.0,33.0,29.82,SW,219,3.0,13.0,64,0.00,,,0.03,weatherlink.com 1.10,2013-01-19 19:19:00,
2013-01-19 15:04:00,45.7,34.0,29.80,SSE,163,4.0,11.0,64,0.00,,,0.03,weatherlink.com 1.10,2013-01-19 20:04:00,
2013-01-19 15:19:00,45.7,34.0,29.81,West,280,0.0,8.0,64,0.00,,,0.03,weatherlink.com 1.10,2013-01-19 20:19:00,
2013-01-19 15:34:00,45.6,34.0,29.80,SW,226,4.0,7.0,64,0.00,,,0.03,weatherlink.com 1.10,2013-01-19 20:34:00,
2013-01-19 15:49:00,45.2,34.0,29.80,SW,233,1.0,9.0,65,0.00,,,0.03,weatherlink.com 1.10,2013-01-19 20:49:00,
2013-01-19 16:19:00,44.9,34.0,29.79,SW,217,3.0,10.0,67,0.00,,,0.03,weatherlink.com 1.10,2013-01-19 21:19:00,
2013-01-19 16:49:00,45.0,35.0,29.73,East,101,6.0,16.0,67,0.00,,,0.03,weatherlink.com 1.10,2013-01-19 21:49:00,
2013-01-19 17:19:00,45.1,35.0,29.76,WSW,252,4.0,13.0,68,0.00,,,0.03,weatherlink.com 1.10,2013-01-19 22:19:00,
2013-01-19 17:34:00,45.2,35.0,29.76,SSE,167,3.0,19.0,68,0.00,,,0.03,weatherlink.com 1.10,2013-01-19 22:34:00,
2013-01-19 18:20:00,44.9,35.0,29.76,SSE,158,6.0,13.0,69,0.00,,,0.03,weatherlink.com 1.10,2013-01-19 23:20:00,
2013-01-19 18:34:00,44.7,35.0,29.75,West,263,4.0,12.0,70,0.00,,,0.03,weatherlink.com 1.10,2013-01-19 23:34:00,
2013-01-19 19:04:00,44.3,36.0,29.75,West,270,3.0,11.0,72,0.00,,,0.03,weatherlink.com 1.10,2013-01-20 00:04:00,
2013-01-19 19:20:00,44.1,36.0,29.76,SSW,204,1.0,7.0,72,0.00,,,0.03,weatherlink.com 1.10,2013-01-20 00:20:00,
2013-01-19 19:35:00,43.9,36.0,29.75,WSW,237,1.0,6.0,73,0.00,,,0.03,weatherlink.com 1.10,2013-01-20 00:35:00,
2013-01-19 19:50:00,43.6,36.0,29.74,WNW,288,2.0,11.0,75,0.00,,,0.03,weatherlink.com 1.10,2013-01-20 00:50:00,
2013-01-19 20:04:00,43.4,36.0,29.74,SW,236,13.0,15.0,75,0.00,,,0.03,weatherlink.com 1.10,2013-01-20 01:04:00,
2013-01-19 20:20:00,43.3,36.0,29.73,NNW,338,6.0,11.0,76,0.00,,,0.03,weatherlink.com 1.10,2013-01-20 01:20:00,
2013-01-19 20:35:00,43.1,36.0,29.73,SSW,200,3.0,7.0,76,0.00,,,0.03,weatherlink.com 1.10,2013-01-20 01:35:00,
2013-01-19 20:50:00,43.2,36.0,29.73,West,262,6.0,7.0,77,0.00,,,0.03,weatherlink.com 1.10,2013-01-20 01:50:00,
2013-01-19 21:05:00,43.3,36.0,29.72,West,264,2.0,8.0,76,0.00,,,0.03,weatherlink.com 1.10,2013-01-20 02:05:00,
2013-01-19 21:19:00,43.3,36.0,29.72,NW,325,2.0,7.0,76,0.00,,,0.03,weatherlink.com 1.10,2013-01-20 02:19:00,
2013-01-19 21:34:00,43.9,36.0,29.71,WNW,295,2.0,9.0,74,0.00,,,0.03,weatherlink.com 1.10,2013-01-20 02:34:00,
2013-01-19 21:49:00,44.2,36.0,29.71,WSW,242,2.0,9.0,73,0.00,,,0.03,weatherlink.com 1.10,2013-01-20 02:49:00,
2013-01-19 22:05:00,44.4,36.0,29.71,SE,128,3.0,10.0,72,0.00,,,0.03,weatherlink.com 1.10,2013-01-20 03:05:00,
2013-01-19 22:20:00,44.4,36.0,29.71,NW,325,5.0,9.0,71,0.00,,,0.03,weatherlink.com 1.10,2013-01-20 03:20:00,
2013-01-19 22:35:00,44.3,34.0,29.72,WNW,297,6.0,14.0,68,0.00,,,0.03,weatherlink.com 1.10,2013-01-20 03:35:00,
2013-01-19 22:49:00,43.7,34.0,29.72,NW,308,6.0,16.0,68,0.00,,,0.03,weatherlink.com 1.10,2013-01-20 03:49:00,
2013-01-19 23:05:00,43.2,33.0,29.72,WNW,293,5.0,16.0,67,0.00,,,0.03,weatherlink.com 1.10,2013-01-20 04:05:00,
2013-01-19 23:20:00,42.3,32.0,29.71,NNE,17,10.0,11.0,67,0.00,,,0.03,weatherlink.com 1.10,2013-01-20 04:20:00,
2013-01-19 23:34:00,41.7,31.0,29.71,NW,309,12.0,14.0,67,0.00,,,0.03,weatherlink.com 1.10,2013-01-20 04:34:00,
2013-01-19 23:49:00,41.0,30.0,29.71,West,269,3.0,17.0,66,0.00,,,0.03,weatherlink.com 1.10,2013-01-20 04:49:00,